Time;durP1;ratioP1;P1;durP2;ratioP2;P2;SDS_P1;SDS_P2;PMS_P1;PMS_P2;Temp;Humidity;BMP_temperature;BMP_pressure;BME280_temperature;BME280_humidity;BME280_pressure;Samples;Min_cycle;Max_cycle;Signal;HPM_P1;HPM_P2
2022/09/01 00:01:19;;;;;;;3.63;1.52;;;15.00;99.90;;;;;;6249494;22;20047;-87
2022/09/01 00:03:47;;;;;;;12.00;2.00;;;15.00;99.90;;;;;;6249135;22;20022;-87
2022/09/01 00:06:21;;;;;;;5.80;1.75;;;14.90;99.90;;;;;;6277141;22;20016;-87
2022/09/01 00:08:48;;;;;;;3.17;2.20;;;14.90;99.90;;;;;;6251356;22;20012;-85
2022/09/01 00:11:14;;;;;;;5.20;1.70;;;14.80;99.90;;;;;;6251287;22;20061;-88
2022/09/01 00:13:40;;;;;;;3.70;1.70;;;14.80;99.90;;;;;;6227776;22;20012;-88
2022/09/01 00:16:06;;;;;;;10.18;2.00;;;14.80;99.90;;;;;;6253742;22;20434;-88
2022/09/01 00:18:33;;;;;;;4.05;1.70;;;14.80;99.90;;;;;;6251072;22;20035;-86
2022/09/01 00:20:59;;;;;;;3.95;1.63;;;14.70;99.90;;;;;;6275944;22;20011;-86
2022/09/01 00:23:26;;;;;;;2.47;1.60;;;14.80;99.90;;;;;;6249854;22;20433;-86
2022/09/01 00:25:53;;;;;;;3.00;1.70;;;14.80;99.90;;;;;;6250149;22;20015;-86
2022/09/01 00:28:19;;;;;;;4.93;1.85;;;14.70;99.90;;;;;;6277918;22;20014;-87
2022/09/01 00:30:44;;;;;;;5.43;1.67;;;14.70;99.90;;;;;;6251608;22;20102;-87
2022/09/01 00:33:10;;;;;;;6.45;1.67;;;14.70;99.90;;;;;;6251218;22;20449;-87
2022/09/01 00:35:36;;;;;;;4.30;1.70;;;14.60;99.90;;;;;;6200970;22;20061;-88
2022/09/01 00:38:02;;;;;;;2.95;1.83;;;14.60;99.90;;;;;;6253283;22;20012;-86
2022/09/01 00:40:28;;;;;;;6.85;1.95;;;14.60;99.90;;;;;;6253290;22;20019;-87
2022/09/01 00:42:54;;;;;;;4.22;1.80;;;14.50;99.90;;;;;;6253553;22;20026;-86
2022/09/01 00:45:20;;;;;;;2.70;1.80;;;14.50;99.90;;;;;;6252569;22;20015;-88
2022/09/01 00:47:47;;;;;;;3.45;1.75;;;14.50;99.90;;;;;;6201752;22;20445;-87
2022/09/01 00:50:16;;;;;;;4.15;1.67;;;14.60;99.90;;;;;;6201972;22;20019;-87
2022/09/01 00:52:49;;;;;;;3.45;1.70;;;14.50;99.90;;;;;;6252915;22;20007;-87
2022/09/01 00:55:23;;;;;;;2.22;1.88;;;14.50;99.90;;;;;;6280888;22;20493;-86
2022/09/01 00:57:49;;;;;;;3.60;2.00;;;14.40;99.90;;;;;;6252327;22;20090;-87
2022/09/01 01:00:21;;;;;;;2.75;1.73;;;14.40;99.90;;;;;;6227651;22;20039;-87
2022/09/01 01:02:54;;;;;;;2.92;1.63;;;14.40;99.90;;;;;;6253281;22;20107;-87
2022/09/01 01:05:26;;;;;;;5.20;1.73;;;14.40;99.90;;;;;;6253996;22;20020;-86
2022/09/01 01:07:54;;;;;;;5.07;1.55;;;14.30;99.90;;;;;;6258228;22;20012;-86
2022/09/01 01:10:21;;;;;;;2.90;1.65;;;14.30;99.90;;;;;;6254483;22;20027;-87
2022/09/01 01:12:50;;;;;;;4.53;1.80;;;14.30;99.90;;;;;;6254703;22;20065;-86
2022/09/01 01:15:18;;;;;;;4.85;1.80;;;14.20;99.90;;;;;;6255827;22;20046;-86
2022/09/01 01:17:44;;;;;;;10.43;2.00;;;14.20;99.90;;;;;;6258454;22;20019;-87
2022/09/01 01:23:18;;;;;;;3.15;2.17;;;14.20;99.90;;;;;;6279395;22;20449;-86
2022/09/01 01:25:49;;;;;;;3.67;1.90;;;14.20;99.90;;;;;;6254348;22;20016;-86
2022/09/01 01:28:20;;;;;;;3.22;1.70;;;14.10;99.90;;;;;;6255127;22;20086;-86
2022/09/01 01:30:51;;;;;;;4.28;2.10;;;14.10;99.90;;;;;;6255844;22;20125;-86
2022/09/01 01:33:23;;;;;;;5.20;1.80;;;14.00;99.90;;;;;;6256895;22;20438;-87
2022/09/01 01:35:51;;;;;;;3.67;1.90;;;14.00;99.90;;;;;;6259878;22;20008;-87
2022/09/01 01:38:21;;;;;;;3.92;1.80;;;13.90;99.90;;;;;;6282692;22;20012;-87
2022/09/01 01:40:48;;;;;;;5.97;1.83;;;13.90;99.90;;;;;;6281518;22;20081;-86
2022/09/01 01:43:18;;;;;;;3.78;1.60;;;13.90;99.90;;;;;;6230355;22;20015;-86
2022/09/01 01:45:47;;;;;;;3.10;1.58;;;13.90;99.90;;;;;;6233305;22;20016;-87
2022/09/01 01:48:14;;;;;;;3.08;1.80;;;13.90;99.90;;;;;;6282911;22;20023;-87
2022/09/01 01:50:41;;;;;;;2.72;1.60;;;13.80;99.90;;;;;;6257842;22;20012;-87
2022/09/01 01:53:12;;;;;;;3.63;1.70;;;13.90;99.90;;;;;;6230885;22;20013;-87
2022/09/01 01:55:40;;;;;;;3.05;1.65;;;13.80;99.90;;;;;;6254931;22;20450;-87
2022/09/01 01:58:10;;;;;;;6.55;2.40;;;13.80;99.90;;;;;;6255108;22;20438;-88
2022/09/01 02:00:37;;;;;;;3.13;1.80;;;13.80;99.90;;;;;;6255807;22;20065;-88
2022/09/01 02:03:04;;;;;;;2.53;1.60;;;13.80;99.90;;;;;;6256990;22;20053;-87
2022/09/01 02:05:35;;;;;;;3.58;1.58;;;13.80;99.90;;;;;;6257756;22;20018;-88
2022/09/01 02:08:10;;;;;;;5.00;1.60;;;13.80;99.90;;;;;;6286143;22;20046;-87
2022/09/01 02:10:40;;;;;;;5.72;1.88;;;13.80;99.90;;;;;;6280230;22;20507;-87
2022/09/01 02:13:10;;;;;;;3.22;1.70;;;13.80;99.90;;;;;;6284121;22;20012;-87
2022/09/01 02:15:44;;;;;;;3.55;1.75;;;13.70;99.90;;;;;;6255847;22;20067;-86
2022/09/01 02:18:15;;;;;;;3.35;2.05;;;13.70;99.90;;;;;;6258058;22;20018;-86
2022/09/01 02:20:46;;;;;;;3.15;1.88;;;13.70;99.90;;;;;;6234469;22;20077;-87
2022/09/01 02:23:14;;;;;;;4.05;1.70;;;13.60;99.90;;;;;;6229987;22;20016;-86
2022/09/01 02:25:43;;;;;;;2.85;1.77;;;13.60;99.90;;;;;;6207762;22;20081;-86
2022/09/01 02:28:14;;;;;;;2.40;1.50;;;13.60;99.90;;;;;;6232943;22;20108;-86
2022/09/01 02:30:44;;;;;;;3.05;1.60;;;13.60;99.90;;;;;;6235853;22;20161;-84
2022/09/01 02:33:17;;;;;;;3.40;1.45;;;13.50;99.90;;;;;;6244128;22;20058;-85
2022/09/01 02:35:58;;;;;;;3.33;1.77;;;13.50;99.90;;;;;;6226012;22;19999;-86
2022/09/01 02:38:28;;;;;;;4.80;1.70;;;13.50;99.90;;;;;;6260861;22;20012;-86
2022/09/01 02:40:57;;;;;;;3.00;1.80;;;13.50;99.90;;;;;;6228640;22;20065;-87
2022/09/01 02:43:26;;;;;;;2.70;1.75;;;13.40;99.90;;;;;;6227109;22;20023;-86
2022/09/01 02:45:54;;;;;;;2.50;1.58;;;13.40;99.90;;;;;;6202869;22;20012;-87
2022/09/01 02:48:23;;;;;;;3.13;2.00;;;13.40;99.90;;;;;;6255971;22;20096;-85
2022/09/01 02:50:49;;;;;;;3.20;1.95;;;13.40;99.90;;;;;;6283221;22;20012;-87
2022/09/01 02:53:15;;;;;;;2.03;1.50;;;13.30;99.90;;;;;;6257712;22;20018;-87
2022/09/01 02:55:42;;;;;;;3.00;1.90;;;13.30;99.90;;;;;;6256046;22;20018;-87
2022/09/01 02:58:15;;;;;;;2.72;1.90;;;13.30;99.90;;;;;;6255369;22;20061;-87
2022/09/01 03:00:44;;;;;;;4.05;1.90;;;13.30;99.90;;;;;;6257652;22;20008;-87
2022/09/01 03:03:11;;;;;;;4.55;1.92;;;13.30;99.90;;;;;;6232162;22;20023;-87
2022/09/01 03:05:38;;;;;;;3.03;1.80;;;13.30;99.90;;;;;;6259858;22;20117;-86
2022/09/01 03:08:09;;;;;;;4.00;1.80;;;13.20;99.90;;;;;;6259959;22;20016;-87
2022/09/01 03:10:40;;;;;;;2.60;1.80;;;13.20;99.90;;;;;;6284059;22;20503;-86
2022/09/01 03:13:15;;;;;;;3.08;1.70;;;13.20;99.90;;;;;;6282672;22;20007;-86
2022/09/01 03:15:42;;;;;;;2.67;1.85;;;13.20;99.90;;;;;;6284195;22;20018;-87
2022/09/01 03:18:10;;;;;;;4.78;1.80;;;13.20;99.90;;;;;;6256805;22;20030;-89
2022/09/01 03:20:38;;;;;;;2.80;2.15;;;13.10;99.90;;;;;;6233046;22;20015;-85
2022/09/01 03:23:07;;;;;;;3.17;1.98;;;13.10;99.90;;;;;;6257208;22;20015;-85
2022/09/01 03:25:35;;;;;;;3.58;1.73;;;13.10;99.90;;;;;;6259808;22;20012;-86
2022/09/01 03:28:03;;;;;;;5.20;1.80;;;13.00;99.90;;;;;;6259876;22;20012;-86
2022/09/01 03:30:31;;;;;;;3.55;1.70;;;13.00;99.90;;;;;;6259642;22;20015;-87
2022/09/01 03:32:59;;;;;;;2.55;1.60;;;13.00;99.90;;;;;;6257858;22;20046;-85
2022/09/01 03:35:27;;;;;;;3.70;2.17;;;12.90;99.90;;;;;;6258708;22;20012;-87
2022/09/01 03:37:57;;;;;;;2.53;1.80;;;12.90;99.90;;;;;;6234064;22;20008;-87
2022/09/01 03:40:26;;;;;;;3.53;1.98;;;12.90;99.90;;;;;;6227650;22;20015;-87
2022/09/01 03:42:53;;;;;;;2.33;1.60;;;12.90;99.90;;;;;;6226321;22;20019;-87
2022/09/01 03:45:19;;;;;;;4.05;1.92;;;12.90;99.90;;;;;;6225164;22;20016;-87
2022/09/01 03:47:45;;;;;;;3.63;2.15;;;12.80;99.90;;;;;;6250741;22;20099;-87
2022/09/01 03:50:19;;;;;;;3.05;1.90;;;12.80;99.90;;;;;;6225267;22;20015;-87
2022/09/01 03:52:48;;;;;;;2.40;1.90;;;12.80;99.90;;;;;;6250275;22;20011;-87
2022/09/01 03:55:22;;;;;;;3.58;1.90;;;12.80;99.90;;;;;;6251659;22;20338;-87
2022/09/01 03:57:59;;;;;;;5.32;1.80;;;12.70;99.90;;;;;;6253046;22;20022;-87
2022/09/01 04:00:28;;;;;;;2.92;1.85;;;12.70;99.90;;;;;;6251074;22;20015;-87
2022/09/01 04:02:57;;;;;;;3.00;1.85;;;12.60;99.90;;;;;;6251230;22;20073;-87
2022/09/01 04:05:28;;;;;;;2.80;1.83;;;12.60;99.90;;;;;;6276405;22;20012;-87
2022/09/01 04:08:02;;;;;;;3.90;1.70;;;12.60;99.90;;;;;;6275859;22;20011;-87
2022/09/01 04:10:32;;;;;;;3.05;1.80;;;12.60;99.90;;;;;;6249735;22;20393;-87
2022/09/01 04:12:58;;;;;;;2.53;1.80;;;12.60;99.90;;;;;;6251139;22;20319;-87
2022/09/01 04:15:26;;;;;;;3.17;1.70;;;12.50;99.90;;;;;;6251124;22;20066;-88
2022/09/01 04:18:18;;;;;;;3.13;1.90;;;12.50;99.90;;;;;;6251398;22;20030;-87
2022/09/01 04:20:49;;;;;;;4.70;2.20;;;12.50;99.90;;;;;;6256580;22;20016;-87
2022/09/01 04:23:20;;;;;;;4.53;2.13;;;12.50;99.90;;;;;;6276584;22;20034;-87
2022/09/01 04:25:49;;;;;;;3.00;2.08;;;12.50;99.90;;;;;;6251095;22;20444;-88
2022/09/01 04:28:21;;;;;;;4.68;2.10;;;12.40;99.90;;;;;;6276525;22;20120;-87
2022/09/01 04:30:50;;;;;;;2.80;2.08;;;12.40;99.90;;;;;;6251173;22;20015;-87
2022/09/01 04:33:16;;;;;;;4.00;2.22;;;12.40;99.90;;;;;;6275797;22;20011;-88
2022/09/01 04:35:42;;;;;;;4.93;2.10;;;12.40;99.90;;;;;;6275715;22;20014;-87
2022/09/01 04:38:08;;;;;;;5.50;1.75;;;12.30;99.90;;;;;;6250650;22;20084;-87
2022/09/01 04:40:39;;;;;;;6.72;2.30;;;12.30;99.90;;;;;;6277240;22;20069;-87
2022/09/01 04:43:08;;;;;;;2.95;2.20;;;12.30;99.90;;;;;;6251628;22;20027;-86
2022/09/01 04:45:35;;;;;;;2.63;1.90;;;12.30;99.90;;;;;;6250914;22;20345;-88
2022/09/01 04:48:03;;;;;;;5.32;1.80;;;12.30;99.90;;;;;;6250240;22;20047;-87
2022/09/01 04:50:31;;;;;;;3.13;1.90;;;12.30;99.90;;;;;;6276836;22;20016;-87
2022/09/01 04:53:03;;;;;;;3.42;2.10;;;12.30;99.90;;;;;;6276877;22;20011;-87
2022/09/01 04:55:29;;;;;;;4.68;2.05;;;12.20;99.90;;;;;;6251382;22;20391;-87
2022/09/01 04:57:57;;;;;;;2.45;1.95;;;12.20;99.90;;;;;;6251170;22;20035;-87
2022/09/01 05:00:25;;;;;;;2.80;1.98;;;12.20;99.90;;;;;;6250927;22;20012;-87
2022/09/01 05:03:01;;;;;;;6.40;2.20;;;12.20;99.90;;;;;;6249971;22;20074;-87
2022/09/01 05:05:27;;;;;;;;;;;12.20;99.90;;;;;;6275884;22;20472;-86
2022/09/01 05:07:54;;;;;;;5.63;2.40;;;12.10;99.90;;;;;;6275472;22;19911;-88
2022/09/01 05:10:21;;;;;;;4.35;2.33;;;12.10;99.90;;;;;;6277976;22;20094;-86
2022/09/01 05:12:48;;;;;;;5.07;2.10;;;12.10;99.90;;;;;;6250602;22;20087;-87
2022/09/01 05:15:16;;;;;;;3.50;2.00;;;12.10;99.90;;;;;;6226084;22;20012;-87
2022/09/01 05:17:42;;;;;;;7.97;2.88;;;12.10;99.90;;;;;;6277752;22;20039;-87
2022/09/01 05:20:10;;;;;;;3.97;2.10;;;12.10;99.90;;;;;;6277733;22;20051;-87
2022/09/01 05:22:39;;;;;;;5.57;1.92;;;12.10;99.90;;;;;;6253140;22;20513;-87
2022/09/01 05:25:13;;;;;;;2.88;2.15;;;12.10;99.90;;;;;;6256145;22;20082;-86
2022/09/01 05:27:49;;;;;;;4.22;2.30;;;12.20;99.90;;;;;;6251715;22;20015;-87
2022/09/01 05:30:17;;;;;;;5.15;2.20;;;12.20;99.90;;;;;;6276704;22;20019;-87
2022/09/01 05:32:46;;;;;;;4.15;2.30;;;12.10;99.90;;;;;;6277478;22;20531;-86
2022/09/01 05:35:12;;;;;;;3.78;2.05;;;12.20;99.90;;;;;;6228515;22;20042;-85
2022/09/01 05:37:38;;;;;;;2.80;2.10;;;12.20;99.90;;;;;;6252719;22;20377;-86
2022/09/01 05:40:14;;;;;;;5.07;2.20;;;12.20;99.90;;;;;;6228129;22;20016;-85
2022/09/01 05:42:43;;;;;;;3.28;2.20;;;12.30;99.90;;;;;;6258185;22;20031;-86
2022/09/01 05:45:13;;;;;;;3.78;2.25;;;12.30;99.90;;;;;;6233709;22;20015;-86
2022/09/01 05:47:40;;;;;;;3.63;2.00;;;12.30;99.90;;;;;;6258259;22;20453;-86
2022/09/01 05:50:09;;;;;;;5.10;2.45;;;12.40;99.90;;;;;;6284094;22;20480;-86
2022/09/01 05:52:37;;;;;;;3.28;2.00;;;12.40;99.90;;;;;;6232905;22;20014;-86
2022/09/01 05:55:07;;;;;;;3.85;2.10;;;12.40;99.90;;;;;;6283361;22;20438;-87
2022/09/01 05:57:38;;;;;;;4.90;2.20;;;12.40;99.90;;;;;;6257608;22;20007;-86
2022/09/01 06:00:11;;;;;;;3.55;1.90;;;12.50;99.90;;;;;;6209639;22;20038;-86
2022/09/01 06:02:39;;;;;;;4.55;2.03;;;12.50;99.90;;;;;;6282961;22;20034;-86
2022/09/01 06:05:06;;;;;;;3.35;2.28;;;12.60;99.90;;;;;;6257914;22;20145;-86
2022/09/01 06:07:32;;;;;;;4.57;2.45;;;12.60;99.90;;;;;;6258299;22;20402;-86
2022/09/01 06:09:59;;;;;;;3.38;2.10;;;12.60;99.90;;;;;;6259954;22;20012;-86
2022/09/01 06:12:25;;;;;;;4.57;2.10;;;12.70;99.90;;;;;;6234671;22;20011;-88
2022/09/01 06:14:53;;;;;;;7.88;2.17;;;12.70;99.90;;;;;;6258310;22;20007;-88
2022/09/01 06:17:23;;;;;;;4.72;2.40;;;12.80;99.90;;;;;;6259594;22;20298;-86
2022/09/01 06:19:51;;;;;;;3.65;2.10;;;12.80;99.90;;;;;;6281935;22;20080;-87
2022/09/01 06:22:18;;;;;;;4.03;2.25;;;12.90;99.90;;;;;;6283719;22;20449;-87
2022/09/01 06:24:44;;;;;;;3.92;2.50;;;13.00;99.90;;;;;;6257430;22;20527;-86
2022/09/01 06:27:10;;;;;;;6.75;2.20;;;13.00;99.90;;;;;;6257540;22;20019;-87
2022/09/01 06:29:40;;;;;;;3.15;2.17;;;13.00;99.90;;;;;;6231626;22;20090;-86
2022/09/01 06:32:11;;;;;;;7.22;2.40;;;13.10;99.90;;;;;;6259240;22;20007;-87
2022/09/01 06:34:42;;;;;;;4.00;2.40;;;13.20;99.90;;;;;;6283338;22;20008;-86
2022/09/01 06:37:09;;;;;;;4.50;2.30;;;13.20;99.90;;;;;;6282845;22;20090;-86
2022/09/01 06:39:35;;;;;;;3.75;2.40;;;13.30;99.90;;;;;;6283104;22;20518;-87
2022/09/01 06:42:01;;;;;;;3.25;2.50;;;13.30;99.90;;;;;;6256708;22;20037;-87
2022/09/01 06:44:30;;;;;;;3.92;2.20;;;13.40;99.90;;;;;;6282934;22;20047;-86
2022/09/01 06:46:56;;;;;;;5.45;2.50;;;13.40;99.90;;;;;;6259117;22;20123;-84
2022/09/01 06:49:31;;;;;;;3.05;2.20;;;13.50;99.90;;;;;;6277114;22;20011;-87
2022/09/01 06:51:58;;;;;;;4.00;2.40;;;13.60;99.90;;;;;;6256352;22;20010;-86
2022/09/01 06:54:24;;;;;;;3.90;2.17;;;13.70;99.90;;;;;;6256285;22;20392;-86
2022/09/01 06:56:52;;;;;;;2.47;2.00;;;13.80;99.90;;;;;;6232231;22;20018;-87
2022/09/01 06:59:18;;;;;;;4.68;2.42;;;13.80;99.90;;;;;;6233130;22;20322;-86
2022/09/01 07:01:43;;;;;;;3.03;1.95;;;14.00;99.90;;;;;;6212136;22;20006;-84
2022/09/01 07:04:09;;;;;;;3.90;1.75;;;14.40;99.90;;;;;;6249280;22;20019;-87
2022/09/01 07:06:38;;;;;;;3.17;1.92;;;14.90;99.90;;;;;;6230698;22;20022;-86
2022/09/01 07:09:03;;;;;;;3.50;1.70;;;15.30;99.90;;;;;;6256904;22;20011;-86
2022/09/01 07:11:32;;;;;;;3.05;2.00;;;15.80;99.90;;;;;;6256650;22;20018;-86
2022/09/01 07:14:03;;;;;;;3.80;2.03;;;16.20;99.90;;;;;;6282709;22;20147;-86
2022/09/01 07:16:33;;;;;;;2.45;1.70;;;16.60;99.90;;;;;;6260094;22;20018;-85
2022/09/01 07:19:00;;;;;;;4.50;1.90;;;17.00;99.90;;;;;;6257727;22;20018;-86
2022/09/01 07:21:28;;;;;;;3.22;1.83;;;17.20;99.90;;;;;;6232792;22;20438;-86
2022/09/01 07:23:56;;;;;;;4.40;1.80;;;17.50;99.90;;;;;;6282394;22;20008;-86
2022/09/01 07:26:24;;;;;;;2.90;1.80;;;17.80;99.90;;;;;;6282546;22;20004;-86
2022/09/01 07:28:51;;;;;;;3.60;1.90;;;18.00;99.90;;;;;;6282751;22;20020;-86
2022/09/01 07:31:19;;;;;;;2.95;1.88;;;18.30;99.90;;;;;;6282961;22;20061;-86
2022/09/01 07:33:47;;;;;;;4.13;1.75;;;18.50;99.90;;;;;;6258318;22;20046;-86
2022/09/01 07:36:14;;;;;;;3.30;1.67;;;18.80;99.90;;;;;;6282726;22;20013;-87
2022/09/01 07:38:41;;;;;;;3.42;1.80;;;19.00;99.90;;;;;;6257673;22;20022;-86
2022/09/01 07:41:11;;;;;;;3.28;1.50;;;19.20;99.90;;;;;;6256848;22;20026;-86
2022/09/01 07:43:38;;;;;;;3.75;1.70;;;19.40;99.90;;;;;;6256936;22;20023;-86
2022/09/01 07:46:05;;;;;;;2.25;1.60;;;19.50;99.90;;;;;;6282530;22;20064;-86
2022/09/01 07:48:31;;;;;;;1.92;1.40;;;19.70;99.90;;;;;;6282462;22;20042;-86
2022/09/01 07:50:57;;;;;;;3.40;1.60;;;19.80;99.90;;;;;;6282413;22;20007;-87
2022/09/01 07:53:26;;;;;;;5.88;1.88;;;19.90;99.90;;;;;;6282962;22;20075;-86
2022/09/01 07:55:54;;;;;;;3.80;1.60;;;20.00;99.90;;;;;;6282673;22;20008;-86
2022/09/01 07:58:22;;;;;;;3.22;1.88;;;20.00;99.90;;;;;;6256807;22;20014;-87
2022/09/01 08:00:50;;;;;;;3.95;1.80;;;20.10;99.90;;;;;;6282499;22;20512;-86
2022/09/01 08:03:18;;;;;;;4.47;1.48;;;20.10;99.90;;;;;;6292338;22;20026;-86
2022/09/01 08:05:44;;;;;;;4.07;1.90;;;20.10;99.90;;;;;;6300575;22;20026;-85
2022/09/01 08:08:10;;;;;;;4.25;1.65;;;20.00;99.90;;;;;;6297919;22;20015;-85
2022/09/01 08:10:44;;;;;;;8.63;1.70;;;19.90;99.90;;;;;;6238523;22;20310;-86
2022/09/01 08:13:10;;;;;;;3.63;1.70;;;19.80;99.90;;;;;;6232534;22;20047;-86
2022/09/01 08:15:38;;;;;;;6.10;2.00;;;19.70;99.90;;;;;;6257446;22;20015;-86
2022/09/01 08:18:04;;;;;;;3.92;1.63;;;19.60;99.90;;;;;;6282611;22;20015;-85
2022/09/01 08:20:33;;;;;;;5.97;1.90;;;19.60;99.90;;;;;;6259579;22;20203;-86
2022/09/01 08:23:00;;;;;;;3.13;1.50;;;19.50;99.90;;;;;;6284294;22;20018;-85
2022/09/01 08:25:25;;;;;;;2.40;1.35;;;19.50;99.90;;;;;;6207334;22;20076;-86
2022/09/01 08:27:51;;;;;;;3.67;1.60;;;19.50;99.90;;;;;;6231205;22;20033;-86
2022/09/01 08:30:17;;;;;;;3.15;1.60;;;19.50;99.90;;;;;;6257352;22;20043;-86
2022/09/01 08:32:43;;;;;;;6.85;1.38;;;19.50;99.90;;;;;;6257674;22;20011;-86
2022/09/01 08:35:11;;;;;;;2.63;1.45;;;19.50;99.90;;;;;;6283231;22;20007;-86
2022/09/01 08:37:38;;;;;;;2.75;1.48;;;19.50;99.90;;;;;;6283044;22;20817;-86
2022/09/01 08:40:07;;;;;;;4.35;1.67;;;19.60;99.90;;;;;;6282807;22;20016;-86
2022/09/01 08:42:41;;;;;;;3.63;1.45;;;19.60;99.90;;;;;;6276631;22;20075;-86
2022/09/01 08:45:22;;;;;;;3.15;1.30;;;19.60;99.90;;;;;;6257405;22;20029;-87
2022/09/01 08:47:52;;;;;;;4.43;1.52;;;19.60;99.90;;;;;;6284748;22;20022;-86
2022/09/01 08:50:19;;;;;;;3.05;1.50;;;19.60;99.90;;;;;;6257477;22;20016;-86
2022/09/01 08:53:08;;;;;;;2.95;1.48;;;19.60;99.90;;;;;;6257140;22;20106;-86
2022/09/01 08:55:46;;;;;;;2.40;1.42;;;19.60;99.90;;;;;;6258638;22;20429;-86
2022/09/01 08:58:16;;;;;;;2.88;1.50;;;19.60;99.90;;;;;;6258269;22;20388;-87
2022/09/01 09:00:45;;;;;;;3.90;1.20;;;19.60;99.90;;;;;;6258209;22;20069;-86
2022/09/01 09:03:26;;;;;;;5.22;1.40;;;19.60;99.90;;;;;;6220875;23;20018;-86
2022/09/01 09:06:11;;;;;;;8.40;1.27;;;19.60;99.90;;;;;;6195901;23;20076;-86
2022/09/01 09:08:56;;;;;;;1.73;0.90;;;19.70;99.90;;;;;;6220979;23;20015;-85
2022/09/01 09:11:49;;;;;;;1.40;1.05;;;19.70;99.20;;;;;;6207052;23;20020;-86
2022/09/01 09:14:32;;;;;;;3.67;1.10;;;19.70;99.80;;;;;;6214944;23;20050;-86
2022/09/01 09:16:58;;;;;;;2.47;1.10;;;19.70;99.20;;;;;;6197347;23;20386;-85
2022/09/01 09:19:28;;;;;;;3.92;1.20;;;19.70;99.20;;;;;;6196691;23;20012;-86
2022/09/01 09:21:57;;;;;;;3.58;1.23;;;19.70;99.20;;;;;;6196758;23;20012;-86
2022/09/01 09:24:48;;;;;;;2.78;1.15;;;19.70;98.90;;;;;;6221946;23;20107;-87
2022/09/01 09:27:28;;;;;;;3.25;1.20;;;19.80;98.10;;;;;;6222285;23;20023;-86
2022/09/01 09:29:59;;;;;;;3.33;1.00;;;19.80;98.00;;;;;;6196928;23;20075;-86
2022/09/01 09:32:50;;;;;;;3.58;1.00;;;19.90;98.00;;;;;;6194663;23;20031;-87
2022/09/01 09:35:17;;;;;;;5.70;1.20;;;20.00;97.40;;;;;;6280344;22;20345;-86
2022/09/01 09:37:44;;;;;;;2.33;1.17;;;20.00;96.70;;;;;;6284412;22;20034;-86
2022/09/01 09:40:13;;;;;;;2.45;1.17;;;20.10;96.90;;;;;;6259463;22;20420;-86
2022/09/01 09:43:00;;;;;;;8.30;1.60;;;20.10;97.50;;;;;;6258220;22;20015;-86
2022/09/01 09:45:33;;;;;;;1.67;1.00;;;20.10;98.00;;;;;;6258707;22;20011;-86
2022/09/01 09:47:59;;;;;;;2.25;1.10;;;20.20;97.10;;;;;;6283714;22;20015;-87
2022/09/01 09:50:38;;;;;;;2.85;0.95;;;20.20;97.10;;;;;;6258647;22;20066;-86
2022/09/01 09:53:10;;;;;;;1.67;1.02;;;20.20;97.10;;;;;;6258467;22;20050;-87
2022/09/01 09:55:48;;;;;;;3.47;1.10;;;20.30;96.70;;;;;;6258582;22;20011;-86
2022/09/01 09:58:14;;;;;;;4.57;1.10;;;20.30;96.80;;;;;;6261251;22;20007;-86
2022/09/01 10:01:02;;;;;;;1.83;1.00;;;20.40;95.90;;;;;;6257816;22;20034;-86
2022/09/01 10:03:37;;;;;;;7.40;1.25;;;20.40;95.50;;;;;;6282767;22;20090;-85
2022/09/01 10:06:03;;;;;;;3.37;1.20;;;20.60;94.60;;;;;;6257826;22;20017;-86
2022/09/01 10:08:33;;;;;;;1.40;0.98;;;20.60;95.00;;;;;;6232944;22;20015;-86
2022/09/01 10:10:59;;;;;;;2.45;1.10;;;20.60;95.30;;;;;;6258531;22;20019;-87
2022/09/01 10:13:29;;;;;;;3.95;1.05;;;20.60;95.30;;;;;;6257753;22;20011;-87
2022/09/01 10:15:59;;;;;;;3.85;1.10;;;20.60;95.30;;;;;;6284161;22;20011;-87
2022/09/01 10:18:40;;;;;;;5.10;1.17;;;20.70;95.40;;;;;;6258094;22;20011;-87
2022/09/01 10:21:15;;;;;;;2.78;0.80;;;20.70;95.30;;;;;;6283839;22;20395;-87
2022/09/01 10:23:42;;;;;;;1.55;1.15;;;20.70;94.90;;;;;;6258054;22;20015;-86
2022/09/01 10:26:16;;;;;;;2.25;1.10;;;20.90;94.40;;;;;;6284055;22;20011;-86
2022/09/01 10:29:00;;;;;;;2.85;1.10;;;21.00;94.20;;;;;;6284301;22;20053;-87
2022/09/01 10:31:26;;;;;;;1.80;1.02;;;21.10;94.20;;;;;;6257685;22;20050;-86
2022/09/01 10:33:53;;;;;;;2.70;1.00;;;21.10;93.70;;;;;;6283376;22;20461;-86
2022/09/01 10:36:21;;;;;;;2.33;1.08;;;21.20;93.80;;;;;;6232853;22;20043;-86
2022/09/01 10:38:47;;;;;;;2.25;1.00;;;21.10;93.10;;;;;;6284150;22;20069;-86
2022/09/01 10:41:53;;;;;;;4.38;1.05;;;21.20;92.90;;;;;;6282187;22;20069;-87
2022/09/01 10:44:20;;;;;;;5.40;0.98;;;21.20;92.90;;;;;;6256630;22;20380;-87
2022/09/01 10:46:45;;;;;;;3.55;1.00;;;21.10;92.00;;;;;;6282546;22;20090;-86
2022/09/01 10:49:26;;;;;;;1.05;0.70;;;21.00;91.90;;;;;;6207322;22;20062;-86
2022/09/01 10:51:54;;;;;;;3.80;0.90;;;21.00;91.30;;;;;;6257454;22;20448;-87
2022/09/01 10:54:51;;;;;;;2.00;1.05;;;20.90;91.40;;;;;;6256381;22;20143;-86
2022/09/01 10:57:17;;;;;;;1.65;0.77;;;20.90;91.90;;;;;;6258252;22;20012;-87
2022/09/01 10:59:43;;;;;;;2.92;0.90;;;21.00;91.70;;;;;;6257451;22;20022;-86
2022/09/01 11:02:09;;;;;;;1.48;0.90;;;21.00;91.50;;;;;;6232501;22;20025;-86
2022/09/01 11:04:40;;;;;;;1.70;1.10;;;21.10;91.50;;;;;;6269995;22;20061;-85
2022/09/01 11:07:18;;;;;;;3.45;0.80;;;21.20;91.50;;;;;;6256167;22;20046;-87
2022/09/01 11:09:47;;;;;;;3.85;1.00;;;21.40;91.40;;;;;;6281557;22;20086;-86
2022/09/01 11:12:26;;;;;;;3.40;1.20;;;21.60;90.20;;;;;;6257595;22;20011;-87
2022/09/01 11:14:55;;;;;;;3.60;1.10;;;21.70;90.40;;;;;;6256618;22;20011;-87
2022/09/01 11:17:31;;;;;;;1.42;0.70;;;21.70;90.00;;;;;;6256423;22;20021;-86
2022/09/01 11:20:07;;;;;;;2.55;0.80;;;21.80;88.00;;;;;;6256965;22;20068;-86
2022/09/01 11:22:32;;;;;;;;;;;21.80;87.40;;;;;;6257290;22;20098;-86
2022/09/01 11:25:05;;;;;;;1.60;0.98;;;21.80;87.80;;;;;;6257436;22;19911;-86
2022/09/01 11:27:49;;;;;;;1.13;0.80;;;21.70;87.80;;;;;;6282696;22;20064;-87
2022/09/01 11:30:30;;;;;;;1.60;0.82;;;21.80;87.90;;;;;;6282566;22;20015;-86
2022/09/01 11:33:19;;;;;;;3.22;1.05;;;21.80;88.20;;;;;;6257446;22;20518;-86
2022/09/01 11:35:45;;;;;;;4.45;0.90;;;22.00;88.70;;;;;;6256419;22;20349;-87
2022/09/01 11:38:15;;;;;;;0.80;0.60;;;22.00;88.90;;;;;;6256967;22;20007;-86
2022/09/01 11:40:42;;;;;;;2.00;1.02;;;22.10;88.20;;;;;;6257222;22;20019;-86
2022/09/01 11:43:13;;;;;;;4.07;0.73;;;22.10;88.40;;;;;;6232993;22;20429;-87
2022/09/01 11:46:25;;;;;;;2.65;0.73;;;22.20;88.30;;;;;;6257653;22;20094;-86
2022/09/01 11:48:51;;;;;;;4.70;1.05;;;22.30;85.70;;;;;;6277060;22;20022;-86
2022/09/01 11:51:18;;;;;;;1.60;0.90;;;22.40;84.40;;;;;;6256989;22;20019;-86
2022/09/01 11:53:43;;;;;;;1.52;0.70;;;22.40;83.20;;;;;;6282806;22;20015;-86
2022/09/01 11:56:16;;;;;;;5.80;1.02;;;22.40;82.90;;;;;;6206892;22;20529;-87
2022/09/01 11:58:42;;;;;;;1.73;0.82;;;22.40;82.10;;;;;;6282603;22;20015;-87
2022/09/01 12:01:35;;;;;;;2.17;0.70;;;22.40;80.30;;;;;;6207273;22;20072;-87
2022/09/01 12:04:22;;;;;;;4.97;1.00;;;22.40;82.30;;;;;;6257430;22;20082;-87
2022/09/01 12:07:00;;;;;;;2.20;0.82;;;22.20;82.40;;;;;;6257329;22;20011;-87
2022/09/01 12:09:53;;;;;;;1.55;0.90;;;22.10;81.30;;;;;;6257681;22;20062;-87
2022/09/01 12:12:45;;;;;;;3.35;0.90;;;22.10;82.20;;;;;;6251325;22;20014;-86
2022/09/01 12:15:22;;;;;;;3.70;0.68;;;22.10;82.00;;;;;;6277748;22;20038;-86
2022/09/01 12:17:48;;;;;;;1.33;0.77;;;22.10;81.40;;;;;;6282957;22;20030;-87
2022/09/01 12:20:29;;;;;;;1.20;0.70;;;22.10;80.70;;;;;;6257533;22;20011;-87
2022/09/01 12:22:57;;;;;;;1.80;0.80;;;22.20;80.70;;;;;;6257638;22;20068;-86
2022/09/01 12:25:32;;;;;;;3.83;0.93;;;22.20;80.50;;;;;;6257949;22;20511;-86
2022/09/01 12:28:07;;;;;;;2.88;0.88;;;22.30;80.50;;;;;;6257057;22;20015;-86
2022/09/01 12:30:38;;;;;;;1.42;0.80;;;22.40;80.10;;;;;;6281250;22;20022;-86
2022/09/01 12:33:05;;;;;;;2.20;1.00;;;22.40;79.90;;;;;;6232167;22;20441;-86
2022/09/01 12:35:31;;;;;;;2.22;1.00;;;22.40;80.30;;;;;;6283586;22;20018;-87
2022/09/01 12:38:19;;;;;;;1.92;0.93;;;22.50;80.40;;;;;;6283280;22;20012;-86
2022/09/01 12:40:51;;;;;;;1.35;0.88;;;22.50;80.30;;;;;;6282666;22;20380;-86
2022/09/01 12:43:37;;;;;;;1.42;0.90;;;22.50;79.20;;;;;;6281946;22;20015;-86
2022/09/01 12:46:05;;;;;;;1.40;0.85;;;22.50;78.30;;;;;;6256991;22;20023;-87
2022/09/01 12:48:39;;;;;;;1.35;0.70;;;22.60;79.10;;;;;;6257730;22;20015;-86
2022/09/01 12:51:24;;;;;;;1.88;0.93;;;22.70;79.60;;;;;;6258877;22;20015;-86
2022/09/01 12:53:53;;;;;;;3.15;0.80;;;22.80;79.90;;;;;;6233974;22;20318;-86
2022/09/01 12:56:38;;;;;;;2.33;0.70;;;23.10;79.60;;;;;;6285891;22;20430;-87
2022/09/01 12:59:13;;;;;;;2.67;0.65;;;23.50;79.70;;;;;;6295188;22;20011;-85
2022/09/01 13:01:40;;;;;;;2.28;0.90;;;23.70;79.50;;;;;;6258223;22;20014;-86
2022/09/01 13:04:29;;;;;;;4.95;0.98;;;23.80;77.80;;;;;;6258195;22;20053;-87
2022/09/01 13:07:01;;;;;;;2.55;0.85;;;23.80;77.00;;;;;;6259237;22;20090;-86
2022/09/01 13:09:28;;;;;;;2.47;1.00;;;23.60;76.50;;;;;;6260071;22;20025;-86